Wednesday, October 1, 2014, 4:17 PM EDT

KESN, Easton / Newman Field

Location: Easton, MD, United States Lat: 38.8
Local Time: 4:17 PM EDT (20:17 GMT) Lon: -76.067
Time Zone: US/Eastern Elev: 72 ft

Show me the last for .
Show Decoded

2014-10-01 15:50 METAR KESN 011950Z 04005KT 10SM SCT031 BKN050 23/17 A3004 =
2014-10-01 14:55 METAR KESN 011855Z 04005KT 10SM BKN032 OVC042 23/16 A3005 =
2014-10-01 13:50 METAR KESN 011750Z 01004KT 10SM BKN026 OVC034 23/17 A3005 =
2014-10-01 12:58 METAR KESN 011658Z 00000KT 10SM BKN023 OVC032 22/17 A3006 =
2014-10-01 11:50 METAR KESN 011550Z 07007KT 10SM SCT020 BKN025 22/17 A3006 =
2014-10-01 10:50 METAR KESN 011450Z 07008KT 10SM BKN011 21/19 A3006 =
2014-10-01 09:50 METAR KESN 011350Z 07007KT 10SM OVC007 19/19 A3007 =
2014-10-01 08:50 METAR KESN 011250Z 06007KT 10SM OVC005 18/18 A3005 =
2014-10-01 07:50 METAR KESN 011150Z 06010KT 10SM OVC005 18/18 A3003 =
2014-10-01 06:50 METAR KESN 011050Z 00000KT 10SM OVC005 17/17 A3001 =
2014-10-01 06:26 METAR KESN 011026Z AUTO 05006KT 7SM OVC005 17/17 A3001 RMK AO2 T01700170 =
2014-10-01 06:17 METAR KESN 011024Z AUTO 05006KT 7SM OVC005 17/17 A3001 =
2014-10-01 06:17 METAR KESN 011024Z AUTO 05006KT 7SM OVC005 17/17 A3001 RMK AO2 T01690169 =
2014-10-01 06:04 METAR KESN 011004Z AUTO 00000KT 7SM BKN005 BKN120 16/16 A3000 =
2014-10-01 06:02 METAR KESN 011004Z AUTO 00000KT 7SM BKN005 BKN120 16/16 A3000 RMK AO2 T01640164
                 =
2014-10-01 05:50 METAR KESN 010950Z 00000KT 10SM BR BKN005 OVC120 17/17 A3000 =
2014-10-01 05:41 METAR KESN 010944Z AUTO 00000KT 7SM SCT003 SCT120 16/16 A2999 =
2014-10-01 05:41 METAR KESN 010944Z AUTO 00000KT 7SM SCT003 SCT120 16/16 A2999 RMK AO2 T01600160
                 =
2014-10-01 05:23 METAR KESN 010924Z AUTO 00000KT 7SM CLR 17/17 A2999 =
2014-10-01 05:16 METAR KESN 010924Z AUTO 00000KT 7SM CLR 17/17 A2999 RMK AO2 T01650165 =
2014-10-01 05:04 METAR KESN 010904Z AUTO 03003KT 10SM CLR 17/17 A2999 RMK AO2 T01660166 =
2014-10-01 04:43 METAR KESN 010844Z AUTO 00000KT 10SM CLR 17/17 A2999 =
2014-10-01 04:43 METAR KESN 010844Z AUTO 00000KT 10SM CLR 17/17 A2999 RMK AO2 T01670167 =
2014-10-01 04:22 METAR KESN 010824Z AUTO 00000KT 10SM SCT055 17/17 A2999 =
2014-10-01 04:18 METAR KESN 010824Z AUTO 00000KT 10SM SCT055 17/17 A2999 RMK AO2 T01700170 =
2014-10-01 04:04 METAR KESN 010804Z AUTO 00000KT 10SM SCT055 17/17 A2999 =
2014-10-01 04:02 METAR KESN 010804Z AUTO 00000KT 10SM SCT055 17/17 A2999 RMK AO2 T01720172 =
2014-10-01 03:42 METAR KESN 010744Z AUTO 06004KT 10SM CLR 18/18 A2998 =
2014-10-01 03:42 METAR KESN 010744Z AUTO 06004KT 10SM CLR 18/18 A2998 RMK AO2 T01750175 =
2014-10-01 03:23 METAR KESN 010724Z AUTO 00000KT 10SM SCT049 SCT060 18/18 A2998 =
2014-10-01 03:17 METAR KESN 010724Z AUTO 00000KT 10SM SCT049 SCT060 18/18 A2998 RMK AO2 T01800180
                 =
2014-10-01 03:04 METAR KESN 010704Z AUTO 00000KT 10SM BKN049 18/18 A2999 =
2014-10-01 03:02 METAR KESN 010704Z AUTO 00000KT 10SM BKN049 18/18 A2999 RMK AO2 T01810181 =
2014-10-01 02:41 METAR KESN 010644Z AUTO 00000KT 10SM SCT045 18/18 A2999 =
2014-10-01 02:41 METAR KESN 010644Z AUTO 00000KT 10SM SCT045 18/18 A2999 RMK AO2 T01830183 =
2014-10-01 02:24 METAR KESN 010624Z AUTO 00000KT 10SM SCT043 SCT049 18/18 A2999 =
2014-10-01 02:16 METAR KESN 010624Z AUTO 00000KT 10SM SCT043 SCT049 18/18 A2999 RMK AO2 T01840184
                 =
2014-10-01 02:04 METAR KESN 010604Z AUTO 00000KT 10SM OVC040 19/19 A2999 =
2014-10-01 02:03 METAR KESN 010604Z AUTO 00000KT 10SM OVC040 19/19 A2999 RMK AO2 T01850185 =
2014-10-01 01:41 METAR KESN 010544Z AUTO 00000KT 10SM OVC038 19/19 A2999 =
2014-10-01 01:41 METAR KESN 010544Z AUTO 00000KT 10SM OVC038 19/19 A2999 RMK AO2 T01850185 =
2014-10-01 01:22 METAR KESN 010524Z AUTO 00000KT 10SM BKN037 BKN044 BKN060 19/19 A2999 =
2014-10-01 01:17 METAR KESN 010524Z AUTO 00000KT 10SM BKN037 BKN044 BKN060 19/19 A2999 RMK AO2
                 T01850185 =
2014-10-01 01:04 METAR KESN 010504Z AUTO 00000KT 10SM SCT035 SCT044 BKN060 19/19 A2998 RMK AO2
                 T01850185 =
2014-10-01 00:41 METAR KESN 010444Z AUTO 00000KT 10SM SCT038 SCT044 BKN060 19/19 A2999 =
2014-10-01 00:41 METAR KESN 010444Z AUTO 00000KT 10SM SCT038 SCT044 BKN060 19/19 A2999 RMK AO2
                 T01870187 =
2014-10-01 00:16 METAR KESN 010424Z AUTO 00000KT 10SM SCT035 SCT046 BKN060 19/19 A2999 =
2014-10-01 00:16 METAR KESN 010424Z AUTO 00000KT 10SM SCT035 SCT046 BKN060 19/19 A2999 RMK AO2
                 T01900190 =
2014-10-01 00:03 METAR KESN 010404Z AUTO 00000KT 10SM BKN035 OVC060 19/19 A2999 RMK AO2 T01910191
                 =
2014-09-30 23:41 METAR KESN 010344Z AUTO 00000KT 10SM BKN035 BKN055 BKN120 19/19 A2998 =
2014-09-30 23:41 METAR KESN 010344Z AUTO 00000KT 10SM BKN035 BKN055 BKN120 19/19 A2998 RMK AO2
                 T01900190 =
2014-09-30 23:23 METAR KESN 010323Z AUTO 00000KT 10SM SCT037 BKN049 BKN055 19/19 A2998 =
2014-09-30 23:16 METAR KESN 010323Z AUTO 00000KT 10SM SCT037 BKN049 BKN055 19/19 A2998 RMK AO2
                 T01930190 =
2014-09-30 23:03 METAR KESN 010303Z AUTO 00000KT 10SM BKN037 OVC047 20/19 A2998 =
2014-09-30 23:02 METAR KESN 010303Z AUTO 00000KT 10SM BKN037 OVC047 20/19 A2998 RMK AO2 T01950185
                 =
2014-09-30 22:41 METAR KESN 010243Z AUTO 00000KT 10SM BKN037 OVC043 20/18 A2998 =
2014-09-30 22:41 METAR KESN 010243Z AUTO 00000KT 10SM BKN037 OVC043 20/18 A2998 RMK AO2 T01950182
                 =
2014-09-30 20:53 METAR KESN 010053Z 00000KT 10SM BKN041 20/17 A2996 =
2014-09-30 19:53 METAR KESN 302353Z 11003KT 10SM SCT034 21/17 A2994 =
2014-09-30 18:50 METAR KESN 302250Z 00000KT 10SM SCT043 BKN055 23/17 A2992 =
2014-09-30 17:50 METAR KESN 302150Z COR 31005KT 10SM SCT039 BKN060 25/18 A2990 =
2014-09-30 16:50 METAR KESN 302050Z 00000KT 10SM SCT048 24/18 A2990 =

Support USWX by starting your Amazon purchase here.